Bruce, Wisconsin
Current Conditions -  °F | °C
As of 6:15 AM on Sunday 25 Jan 2015 (Local Time) from KRCX Reporting Station
Overcast Overcast  
Wind Chill: -16°   Ceiling: 1800
Heat Index: -9°   Visibility: 10mi
Dew Point: -13°   Wind: 10mph
Humidity: 78%   Direction: 40°NE
Pressure: 29.91"   Gusts: NA
Location:  45.46°N, 91.27°W
Report Text: KRCX 251215Z AUTO 04009KT 10SM OVC018 M09/M12 A2991 RMK AO2 T10931125
Loading
Personal Weather Stations






























Interactive Weather Map New forecast layout! Learn more

10-Day Weather Forecast

Advertisements
Track Severe Weather on mobile